sensor_id;sensor_type;location;lat;lon;timestamp;P1;durP1;ratioP1;P2;durP2;ratioP2
61477;SDS011;47345;52.334;10.392;2023-07-02T00:00:21;4.40;;;3.00;;
61477;SDS011;47345;52.334;10.392;2023-07-02T00:02:52;5.00;;;3.10;;
61477;SDS011;47345;52.334;10.392;2023-07-02T00:05:23;4.20;;;3.30;;
61477;SDS011;47345;52.334;10.392;2023-07-02T00:07:54;7.60;;;3.10;;
61477;SDS011;47345;52.334;10.392;2023-07-02T00:10:26;9.30;;;3.20;;
61477;SDS011;47345;52.334;10.392;2023-07-02T00:12:57;8.80;;;3.20;;
61477;SDS011;47345;52.334;10.392;2023-07-02T00:15:28;5.10;;;3.00;;
61477;SDS011;47345;52.334;10.392;2023-07-02T00:18:00;3.80;;;2.70;;
61477;SDS011;47345;52.334;10.392;2023-07-02T00:20:32;4.40;;;2.90;;
61477;SDS011;47345;52.334;10.392;2023-07-02T00:23:05;9.20;;;2.80;;
61477;SDS011;47345;52.334;10.392;2023-07-02T00:25:37;7.30;;;2.80;;
61477;SDS011;47345;52.334;10.392;2023-07-02T00:28:08;6.10;;;2.80;;
61477;SDS011;47345;52.334;10.392;2023-07-02T00:30:39;11.70;;;2.80;;
61477;SDS011;47345;52.334;10.392;2023-07-02T00:33:11;3.90;;;2.50;;
61477;SDS011;47345;52.334;10.392;2023-07-02T00:35:42;5.70;;;2.70;;
61477;SDS011;47345;52.334;10.392;2023-07-02T00:38:13;3.90;;;2.40;;
61477;SDS011;47345;52.334;10.392;2023-07-02T00:40:44;12.10;;;3.20;;
61477;SDS011;47345;52.334;10.392;2023-07-02T00:43:15;4.30;;;2.40;;
61477;SDS011;47345;52.334;10.392;2023-07-02T00:45:46;8.80;;;2.60;;
61477;SDS011;47345;52.334;10.392;2023-07-02T00:48:18;8.10;;;2.80;;
61477;SDS011;47345;52.334;10.392;2023-07-02T00:50:49;9.60;;;2.90;;
61477;SDS011;47345;52.334;10.392;2023-07-02T00:53:20;6.70;;;2.80;;
61477;SDS011;47345;52.334;10.392;2023-07-02T00:55:51;6.30;;;2.50;;
61477;SDS011;47345;52.334;10.392;2023-07-02T00:58:22;8.70;;;2.70;;
61477;SDS011;47345;52.334;10.392;2023-07-02T01:00:54;7.20;;;2.80;;
61477;SDS011;47345;52.334;10.392;2023-07-02T01:03:25;7.90;;;3.00;;
61477;SDS011;47345;52.334;10.392;2023-07-02T01:06:01;10.10;;;2.60;;
61477;SDS011;47345;52.334;10.392;2023-07-02T01:08:32;6.50;;;2.30;;
61477;SDS011;47345;52.334;10.392;2023-07-02T01:11:03;3.60;;;2.10;;
61477;SDS011;47345;52.334;10.392;2023-07-02T01:13:34;8.60;;;2.40;;
61477;SDS011;47345;52.334;10.392;2023-07-02T01:16:06;5.00;;;2.30;;
61477;SDS011;47345;52.334;10.392;2023-07-02T01:18:37;5.50;;;2.40;;
61477;SDS011;47345;52.334;10.392;2023-07-02T01:21:08;8.00;;;2.50;;
61477;SDS011;47345;52.334;10.392;2023-07-02T01:23:39;15.50;;;2.70;;
61477;SDS011;47345;52.334;10.392;2023-07-02T01:26:10;7.40;;;2.60;;
61477;SDS011;47345;52.334;10.392;2023-07-02T01:28:42;11.30;;;2.70;;
61477;SDS011;47345;52.334;10.392;2023-07-02T01:31:14;7.70;;;2.50;;
61477;SDS011;47345;52.334;10.392;2023-07-02T01:33:45;10.30;;;2.30;;
61477;SDS011;47345;52.334;10.392;2023-07-02T01:36:16;7.40;;;2.30;;
61477;SDS011;47345;52.334;10.392;2023-07-02T01:38:47;8.50;;;2.50;;
61477;SDS011;47345;52.334;10.392;2023-07-02T01:41:18;8.30;;;3.10;;
61477;SDS011;47345;52.334;10.392;2023-07-02T01:43:49;7.30;;;2.30;;
61477;SDS011;47345;52.334;10.392;2023-07-02T01:46:20;3.50;;;2.20;;
61477;SDS011;47345;52.334;10.392;2023-07-02T01:48:52;10.40;;;2.70;;
61477;SDS011;47345;52.334;10.392;2023-07-02T01:51:23;6.00;;;2.20;;
61477;SDS011;47345;52.334;10.392;2023-07-02T01:53:54;6.10;;;2.40;;
61477;SDS011;47345;52.334;10.392;2023-07-02T01:56:25;6.10;;;2.50;;
61477;SDS011;47345;52.334;10.392;2023-07-02T01:58:56;8.10;;;2.20;;
61477;SDS011;47345;52.334;10.392;2023-07-02T02:01:27;8.10;;;2.40;;
61477;SDS011;47345;52.334;10.392;2023-07-02T02:03:58;4.20;;;2.50;;
61477;SDS011;47345;52.334;10.392;2023-07-02T02:06:29;9.00;;;2.30;;
61477;SDS011;47345;52.334;10.392;2023-07-02T02:09:00;12.80;;;2.30;;
61477;SDS011;47345;52.334;10.392;2023-07-02T02:11:33;6.40;;;2.40;;
61477;SDS011;47345;52.334;10.392;2023-07-02T02:14:06;7.50;;;2.50;;
61477;SDS011;47345;52.334;10.392;2023-07-02T02:16:37;13.50;;;2.60;;
61477;SDS011;47345;52.334;10.392;2023-07-02T02:19:08;8.80;;;2.40;;
61477;SDS011;47345;52.334;10.392;2023-07-02T02:21:39;11.70;;;2.40;;
61477;SDS011;47345;52.334;10.392;2023-07-02T02:24:10;12.00;;;2.80;;
61477;SDS011;47345;52.334;10.392;2023-07-02T02:26:42;11.30;;;2.80;;
61477;SDS011;47345;52.334;10.392;2023-07-02T02:29:12;4.90;;;2.40;;
61477;SDS011;47345;52.334;10.392;2023-07-02T02:31:43;9.80;;;2.80;;
61477;SDS011;47345;52.334;10.392;2023-07-02T02:34:14;7.10;;;2.50;;
61477;SDS011;47345;52.334;10.392;2023-07-02T02:36:45;13.60;;;2.40;;
61477;SDS011;47345;52.334;10.392;2023-07-02T02:39:17;5.90;;;2.20;;
61477;SDS011;47345;52.334;10.392;2023-07-02T02:41:48;8.30;;;2.60;;
61477;SDS011;47345;52.334;10.392;2023-07-02T02:44:19;3.50;;;2.40;;
61477;SDS011;47345;52.334;10.392;2023-07-02T02:46:50;5.80;;;2.30;;
61477;SDS011;47345;52.334;10.392;2023-07-02T02:49:21;7.90;;;2.50;;
61477;SDS011;47345;52.334;10.392;2023-07-02T02:51:53;7.10;;;2.60;;
61477;SDS011;47345;52.334;10.392;2023-07-02T02:54:24;9.90;;;2.90;;
61477;SDS011;47345;52.334;10.392;2023-07-02T02:56:55;5.10;;;2.50;;
61477;SDS011;47345;52.334;10.392;2023-07-02T02:59:27;12.10;;;2.80;;
61477;SDS011;47345;52.334;10.392;2023-07-02T03:01:58;8.20;;;3.00;;
61477;SDS011;47345;52.334;10.392;2023-07-02T03:04:29;4.60;;;2.60;;
61477;SDS011;47345;52.334;10.392;2023-07-02T03:07:00;7.40;;;2.60;;
61477;SDS011;47345;52.334;10.392;2023-07-02T03:09:31;6.30;;;2.80;;
61477;SDS011;47345;52.334;10.392;2023-07-02T03:12:02;11.10;;;2.70;;
61477;SDS011;47345;52.334;10.392;2023-07-02T03:14:34;10.60;;;2.70;;
61477;SDS011;47345;52.334;10.392;2023-07-02T03:17:05;5.20;;;2.70;;
61477;SDS011;47345;52.334;10.392;2023-07-02T03:19:37;8.00;;;2.70;;
61477;SDS011;47345;52.334;10.392;2023-07-02T03:22:07;4.50;;;2.50;;
61477;SDS011;47345;52.334;10.392;2023-07-02T03:24:39;10.50;;;3.00;;
61477;SDS011;47345;52.334;10.392;2023-07-02T03:27:10;10.70;;;3.10;;
61477;SDS011;47345;52.334;10.392;2023-07-02T03:29:41;6.10;;;3.00;;
61477;SDS011;47345;52.334;10.392;2023-07-02T03:32:13;9.70;;;2.70;;
61477;SDS011;47345;52.334;10.392;2023-07-02T03:34:44;6.00;;;2.70;;
61477;SDS011;47345;52.334;10.392;2023-07-02T03:37:15;6.00;;;2.70;;
61477;SDS011;47345;52.334;10.392;2023-07-02T03:39:46;13.20;;;3.10;;
61477;SDS011;47345;52.334;10.392;2023-07-02T03:42:17;4.80;;;2.80;;
61477;SDS011;47345;52.334;10.392;2023-07-02T03:44:48;5.50;;;3.10;;
61477;SDS011;47345;52.334;10.392;2023-07-02T03:47:19;5.60;;;2.70;;
61477;SDS011;47345;52.334;10.392;2023-07-02T03:49:50;5.20;;;3.30;;
61477;SDS011;47345;52.334;10.392;2023-07-02T03:52:22;10.20;;;3.00;;
61477;SDS011;47345;52.334;10.392;2023-07-02T03:54:53;7.30;;;3.20;;
61477;SDS011;47345;52.334;10.392;2023-07-02T03:57:24;6.90;;;3.10;;
61477;SDS011;47345;52.334;10.392;2023-07-02T03:59:55;8.80;;;3.20;;
61477;SDS011;47345;52.334;10.392;2023-07-02T04:02:26;11.20;;;4.00;;
61477;SDS011;47345;52.334;10.392;2023-07-02T04:04:57;9.30;;;3.60;;
61477;SDS011;47345;52.334;10.392;2023-07-02T04:07:30;6.50;;;3.10;;
61477;SDS011;47345;52.334;10.392;2023-07-02T04:10:00;6.70;;;3.30;;
61477;SDS011;47345;52.334;10.392;2023-07-02T04:12:32;6.10;;;3.30;;
61477;SDS011;47345;52.334;10.392;2023-07-02T04:15:03;5.80;;;3.00;;
61477;SDS011;47345;52.334;10.392;2023-07-02T04:17:35;4.00;;;3.40;;
61477;SDS011;47345;52.334;10.392;2023-07-02T04:20:07;7.40;;;3.00;;
61477;SDS011;47345;52.334;10.392;2023-07-02T04:22:39;5.00;;;3.30;;
61477;SDS011;47345;52.334;10.392;2023-07-02T04:25:10;5.90;;;3.30;;
61477;SDS011;47345;52.334;10.392;2023-07-02T04:28:03;8.80;;;3.50;;
61477;SDS011;47345;52.334;10.392;2023-07-02T04:30:34;7.70;;;3.80;;
61477;SDS011;47345;52.334;10.392;2023-07-02T04:33:05;6.00;;;3.30;;
61477;SDS011;47345;52.334;10.392;2023-07-02T04:35:36;7.90;;;3.40;;
61477;SDS011;47345;52.334;10.392;2023-07-02T04:38:08;5.10;;;3.40;;
61477;SDS011;47345;52.334;10.392;2023-07-02T04:40:39;5.90;;;3.10;;
61477;SDS011;47345;52.334;10.392;2023-07-02T04:43:13;8.60;;;3.30;;
61477;SDS011;47345;52.334;10.392;2023-07-02T04:45:46;5.50;;;3.30;;
61477;SDS011;47345;52.334;10.392;2023-07-02T04:48:17;11.60;;;3.50;;
61477;SDS011;47345;52.334;10.392;2023-07-02T04:50:49;6.50;;;3.60;;
61477;SDS011;47345;52.334;10.392;2023-07-02T04:53:20;4.30;;;3.40;;
61477;SDS011;47345;52.334;10.392;2023-07-02T04:55:50;5.20;;;3.70;;
61477;SDS011;47345;52.334;10.392;2023-07-02T04:58:21;6.90;;;3.80;;
61477;SDS011;47345;52.334;10.392;2023-07-02T05:00:52;5.90;;;3.80;;
61477;SDS011;47345;52.334;10.392;2023-07-02T05:03:23;6.40;;;4.00;;
61477;SDS011;47345;52.334;10.392;2023-07-02T05:05:55;4.60;;;4.00;;
61477;SDS011;47345;52.334;10.392;2023-07-02T05:08:26;10.50;;;4.30;;
61477;SDS011;47345;52.334;10.392;2023-07-02T05:10:57;6.90;;;3.90;;
61477;SDS011;47345;52.334;10.392;2023-07-02T05:13:28;5.00;;;3.50;;
61477;SDS011;47345;52.334;10.392;2023-07-02T05:15:59;10.00;;;3.90;;
61477;SDS011;47345;52.334;10.392;2023-07-02T05:18:30;7.10;;;3.80;;
61477;SDS011;47345;52.334;10.392;2023-07-02T05:21:01;8.30;;;4.10;;
61477;SDS011;47345;52.334;10.392;2023-07-02T05:23:32;6.50;;;3.70;;
61477;SDS011;47345;52.334;10.392;2023-07-02T05:26:04;6.00;;;3.60;;
61477;SDS011;47345;52.334;10.392;2023-07-02T05:28:35;8.90;;;3.80;;
61477;SDS011;47345;52.334;10.392;2023-07-02T05:31:06;8.20;;;4.10;;
61477;SDS011;47345;52.334;10.392;2023-07-02T05:33:37;8.00;;;3.80;;
61477;SDS011;47345;52.334;10.392;2023-07-02T05:36:08;8.20;;;3.40;;
61477;SDS011;47345;52.334;10.392;2023-07-02T05:38:40;8.30;;;3.70;;
61477;SDS011;47345;52.334;10.392;2023-07-02T05:41:11;5.30;;;3.50;;
61477;SDS011;47345;52.334;10.392;2023-07-02T05:43:46;8.20;;;3.50;;
61477;SDS011;47345;52.334;10.392;2023-07-02T05:46:17;7.30;;;3.80;;
61477;SDS011;47345;52.334;10.392;2023-07-02T05:48:48;8.70;;;3.90;;
61477;SDS011;47345;52.334;10.392;2023-07-02T05:51:21;10.00;;;4.00;;
61477;SDS011;47345;52.334;10.392;2023-07-02T05:53:52;8.00;;;3.80;;
61477;SDS011;47345;52.334;10.392;2023-07-02T05:56:23;8.90;;;3.70;;
61477;SDS011;47345;52.334;10.392;2023-07-02T05:58:54;9.90;;;4.20;;
61477;SDS011;47345;52.334;10.392;2023-07-02T06:01:25;7.50;;;4.20;;
61477;SDS011;47345;52.334;10.392;2023-07-02T06:03:56;6.80;;;3.40;;
61477;SDS011;47345;52.334;10.392;2023-07-02T06:06:28;8.90;;;4.30;;
61477;SDS011;47345;52.334;10.392;2023-07-02T06:08:59;10.80;;;4.30;;
61477;SDS011;47345;52.334;10.392;2023-07-02T06:11:31;10.20;;;4.40;;
61477;SDS011;47345;52.334;10.392;2023-07-02T06:14:02;11.90;;;4.10;;
61477;SDS011;47345;52.334;10.392;2023-07-02T06:16:33;12.30;;;4.40;;
61477;SDS011;47345;52.334;10.392;2023-07-02T06:19:04;13.00;;;4.50;;
61477;SDS011;47345;52.334;10.392;2023-07-02T06:21:36;11.70;;;4.00;;
61477;SDS011;47345;52.334;10.392;2023-07-02T06:24:07;22.50;;;5.00;;
61477;SDS011;47345;52.334;10.392;2023-07-02T06:26:38;10.30;;;4.30;;
61477;SDS011;47345;52.334;10.392;2023-07-02T06:29:09;9.30;;;4.40;;
61477;SDS011;47345;52.334;10.392;2023-07-02T06:31:40;10.40;;;4.80;;
61477;SDS011;47345;52.334;10.392;2023-07-02T06:34:11;12.30;;;4.90;;
61477;SDS011;47345;52.334;10.392;2023-07-02T06:36:42;15.10;;;7.30;;
61477;SDS011;47345;52.334;10.392;2023-07-02T06:39:13;12.20;;;4.60;;
61477;SDS011;47345;52.334;10.392;2023-07-02T06:41:45;14.30;;;4.60;;
61477;SDS011;47345;52.334;10.392;2023-07-02T06:44:16;11.90;;;4.80;;
61477;SDS011;47345;52.334;10.392;2023-07-02T06:46:47;10.90;;;4.80;;
61477;SDS011;47345;52.334;10.392;2023-07-02T06:49:18;8.10;;;4.20;;
61477;SDS011;47345;52.334;10.392;2023-07-02T06:51:50;11.60;;;5.10;;
61477;SDS011;47345;52.334;10.392;2023-07-02T06:54:21;11.60;;;4.40;;
61477;SDS011;47345;52.334;10.392;2023-07-02T06:56:52;13.50;;;4.70;;
61477;SDS011;47345;52.334;10.392;2023-07-02T06:59:23;17.60;;;5.20;;
61477;SDS011;47345;52.334;10.392;2023-07-02T07:01:55;10.30;;;4.20;;
61477;SDS011;47345;52.334;10.392;2023-07-02T07:04:26;13.90;;;4.90;;
61477;SDS011;47345;52.334;10.392;2023-07-02T07:06:57;17.80;;;5.60;;
61477;SDS011;47345;52.334;10.392;2023-07-02T07:09:28;11.30;;;4.90;;
61477;SDS011;47345;52.334;10.392;2023-07-02T07:11:59;12.00;;;4.40;;
61477;SDS011;47345;52.334;10.392;2023-07-02T07:14:30;16.40;;;4.60;;
61477;SDS011;47345;52.334;10.392;2023-07-02T07:17:02;12.50;;;5.00;;
61477;SDS011;47345;52.334;10.392;2023-07-02T07:19:33;15.50;;;4.20;;
61477;SDS011;47345;52.334;10.392;2023-07-02T07:22:04;10.60;;;4.60;;
61477;SDS011;47345;52.334;10.392;2023-07-02T07:24:36;12.70;;;4.90;;
61477;SDS011;47345;52.334;10.392;2023-07-02T07:27:07;14.80;;;4.60;;
61477;SDS011;47345;52.334;10.392;2023-07-02T07:29:38;10.00;;;4.30;;
61477;SDS011;47345;52.334;10.392;2023-07-02T07:32:09;12.40;;;4.60;;
61477;SDS011;47345;52.334;10.392;2023-07-02T07:34:40;10.90;;;5.20;;
61477;SDS011;47345;52.334;10.392;2023-07-02T07:37:12;13.90;;;5.40;;
61477;SDS011;47345;52.334;10.392;2023-07-02T07:39:43;8.70;;;4.30;;
61477;SDS011;47345;52.334;10.392;2023-07-02T07:42:15;12.00;;;4.70;;
61477;SDS011;47345;52.334;10.392;2023-07-02T07:44:46;13.90;;;4.80;;
61477;SDS011;47345;52.334;10.392;2023-07-02T07:47:17;13.60;;;4.70;;
61477;SDS011;47345;52.334;10.392;2023-07-02T07:49:48;15.50;;;5.30;;
61477;SDS011;47345;52.334;10.392;2023-07-02T07:52:20;17.80;;;5.80;;
61477;SDS011;47345;52.334;10.392;2023-07-02T07:54:50;11.80;;;5.00;;
61477;SDS011;47345;52.334;10.392;2023-07-02T07:57:22;12.00;;;4.90;;
61477;SDS011;47345;52.334;10.392;2023-07-02T07:59:54;11.60;;;4.90;;
61477;SDS011;47345;52.334;10.392;2023-07-02T08:02:25;14.60;;;5.60;;
61477;SDS011;47345;52.334;10.392;2023-07-02T08:04:56;8.60;;;4.70;;
61477;SDS011;47345;52.334;10.392;2023-07-02T08:07:27;16.50;;;5.10;;
61477;SDS011;47345;52.334;10.392;2023-07-02T08:09:57;18.00;;;5.60;;
61477;SDS011;47345;52.334;10.392;2023-07-02T08:12:30;17.30;;;5.00;;
61477;SDS011;47345;52.334;10.392;2023-07-02T08:15:01;10.40;;;4.90;;
61477;SDS011;47345;52.334;10.392;2023-07-02T08:17:34;9.80;;;4.80;;
61477;SDS011;47345;52.334;10.392;2023-07-02T08:20:05;13.50;;;5.30;;
61477;SDS011;47345;52.334;10.392;2023-07-02T08:22:38;11.80;;;5.20;;
61477;SDS011;47345;52.334;10.392;2023-07-02T08:25:10;14.60;;;4.90;;
61477;SDS011;47345;52.334;10.392;2023-07-02T08:27:41;16.30;;;4.80;;
61477;SDS011;47345;52.334;10.392;2023-07-02T08:30:12;16.30;;;4.90;;
61477;SDS011;47345;52.334;10.392;2023-07-02T08:32:43;14.90;;;5.80;;
61477;SDS011;47345;52.334;10.392;2023-07-02T08:35:16;16.20;;;5.60;;
61477;SDS011;47345;52.334;10.392;2023-07-02T08:37:47;21.30;;;6.10;;
61477;SDS011;47345;52.334;10.392;2023-07-02T08:40:18;16.20;;;5.80;;
61477;SDS011;47345;52.334;10.392;2023-07-02T08:42:50;11.00;;;4.50;;
61477;SDS011;47345;52.334;10.392;2023-07-02T08:45:21;13.10;;;5.20;;
61477;SDS011;47345;52.334;10.392;2023-07-02T08:47:53;16.00;;;5.10;;
61477;SDS011;47345;52.334;10.392;2023-07-02T08:50:26;12.30;;;5.00;;
61477;SDS011;47345;52.334;10.392;2023-07-02T08:52:57;15.20;;;5.30;;
61477;SDS011;47345;52.334;10.392;2023-07-02T08:55:28;14.60;;;5.10;;
61477;SDS011;47345;52.334;10.392;2023-07-02T08:57:59;16.40;;;5.50;;
61477;SDS011;47345;52.334;10.392;2023-07-02T09:00:31;12.50;;;5.50;;
61477;SDS011;47345;52.334;10.392;2023-07-02T09:03:14;14.70;;;4.80;;
61477;SDS011;47345;52.334;10.392;2023-07-02T09:05:50;14.20;;;5.00;;
61477;SDS011;47345;52.334;10.392;2023-07-02T09:08:25;10.40;;;4.80;;
61477;SDS011;47345;52.334;10.392;2023-07-02T09:11:06;11.60;;;5.30;;
61477;SDS011;47345;52.334;10.392;2023-07-02T09:13:45;13.70;;;5.20;;
61477;SDS011;47345;52.334;10.392;2023-07-02T09:16:24;11.60;;;5.20;;
61477;SDS011;47345;52.334;10.392;2023-07-02T09:19:01;13.20;;;5.10;;
61477;SDS011;47345;52.334;10.392;2023-07-02T09:21:41;14.00;;;5.10;;
61477;SDS011;47345;52.334;10.392;2023-07-02T09:24:14;11.20;;;5.70;;
61477;SDS011;47345;52.334;10.392;2023-07-02T09:26:46;11.80;;;5.50;;
61477;SDS011;47345;52.334;10.392;2023-07-02T09:29:20;10.70;;;4.70;;
61477;SDS011;47345;52.334;10.392;2023-07-02T09:31:53;16.40;;;5.40;;
61477;SDS011;47345;52.334;10.392;2023-07-02T09:34:28;16.40;;;5.10;;
61477;SDS011;47345;52.334;10.392;2023-07-02T09:37:01;11.10;;;4.90;;
61477;SDS011;47345;52.334;10.392;2023-07-02T09:39:34;14.20;;;5.20;;
61477;SDS011;47345;52.334;10.392;2023-07-02T09:42:08;17.60;;;5.70;;
61477;SDS011;47345;52.334;10.392;2023-07-02T09:44:39;10.80;;;4.60;;
61477;SDS011;47345;52.334;10.392;2023-07-02T09:47:11;11.00;;;4.70;;
61477;SDS011;47345;52.334;10.392;2023-07-02T09:49:47;13.40;;;5.20;;
61477;SDS011;47345;52.334;10.392;2023-07-02T09:52:22;10.20;;;5.30;;
61477;SDS011;47345;52.334;10.392;2023-07-02T09:54:55;13.80;;;5.80;;
61477;SDS011;47345;52.334;10.392;2023-07-02T09:57:26;17.40;;;5.30;;
61477;SDS011;47345;52.334;10.392;2023-07-02T09:59:59;19.70;;;5.00;;
61477;SDS011;47345;52.334;10.392;2023-07-02T10:02:32;11.00;;;5.30;;
61477;SDS011;47345;52.334;10.392;2023-07-02T10:05:04;12.20;;;4.70;;
61477;SDS011;47345;52.334;10.392;2023-07-02T10:07:35;16.30;;;4.50;;
61477;SDS011;47345;52.334;10.392;2023-07-02T10:10:07;13.10;;;4.90;;
61477;SDS011;47345;52.334;10.392;2023-07-02T10:12:45;15.40;;;5.60;;
61477;SDS011;47345;52.334;10.392;2023-07-02T10:15:23;14.10;;;5.00;;
61477;SDS011;47345;52.334;10.392;2023-07-02T10:17:55;10.60;;;4.70;;
61477;SDS011;47345;52.334;10.392;2023-07-02T10:20:34;17.70;;;5.40;;
61477;SDS011;47345;52.334;10.392;2023-07-02T10:23:06;11.50;;;5.20;;
61477;SDS011;47345;52.334;10.392;2023-07-02T10:25:38;11.40;;;4.90;;
61477;SDS011;47345;52.334;10.392;2023-07-02T10:28:16;12.70;;;5.30;;
61477;SDS011;47345;52.334;10.392;2023-07-02T10:30:50;9.50;;;4.60;;
61477;SDS011;47345;52.334;10.392;2023-07-02T10:33:23;11.40;;;5.30;;
61477;SDS011;47345;52.334;10.392;2023-07-02T10:35:54;10.20;;;5.00;;
61477;SDS011;47345;52.334;10.392;2023-07-02T10:38:25;15.10;;;4.70;;
61477;SDS011;47345;52.334;10.392;2023-07-02T10:40:56;12.10;;;5.20;;
61477;SDS011;47345;52.334;10.392;2023-07-02T10:43:29;9.00;;;4.60;;
61477;SDS011;47345;52.334;10.392;2023-07-02T10:46:01;8.70;;;4.60;;
61477;SDS011;47345;52.334;10.392;2023-07-02T10:48:33;9.20;;;4.40;;
61477;SDS011;47345;52.334;10.392;2023-07-02T10:51:12;14.50;;;5.00;;
61477;SDS011;47345;52.334;10.392;2023-07-02T10:53:42;14.30;;;6.10;;
61477;SDS011;47345;52.334;10.392;2023-07-02T10:56:19;7.40;;;4.50;;
61477;SDS011;47345;52.334;10.392;2023-07-02T10:58:50;11.40;;;5.40;;
61477;SDS011;47345;52.334;10.392;2023-07-02T11:01:24;11.70;;;4.80;;
61477;SDS011;47345;52.334;10.392;2023-07-02T11:03:56;11.50;;;4.70;;
61477;SDS011;47345;52.334;10.392;2023-07-02T11:06:32;15.90;;;4.90;;
61477;SDS011;47345;52.334;10.392;2023-07-02T11:09:03;10.00;;;4.90;;
61477;SDS011;47345;52.334;10.392;2023-07-02T11:11:51;8.90;;;4.70;;
61477;SDS011;47345;52.334;10.392;2023-07-02T11:14:29;10.80;;;4.90;;
61477;SDS011;47345;52.334;10.392;2023-07-02T11:17:02;13.30;;;5.10;;
61477;SDS011;47345;52.334;10.392;2023-07-02T11:19:35;14.60;;;5.00;;
61477;SDS011;47345;52.334;10.392;2023-07-02T11:22:06;11.40;;;5.10;;
61477;SDS011;47345;52.334;10.392;2023-07-02T11:24:37;8.20;;;4.80;;
61477;SDS011;47345;52.334;10.392;2023-07-02T11:27:08;10.30;;;5.30;;
61477;SDS011;47345;52.334;10.392;2023-07-02T11:29:58;12.00;;;4.60;;
61477;SDS011;47345;52.334;10.392;2023-07-02T11:32:29;11.20;;;4.80;;
61477;SDS011;47345;52.334;10.392;2023-07-02T11:35:00;9.90;;;4.60;;
61477;SDS011;47345;52.334;10.392;2023-07-02T11:37:31;11.70;;;4.80;;
61477;SDS011;47345;52.334;10.392;2023-07-02T11:40:02;11.70;;;4.60;;
61477;SDS011;47345;52.334;10.392;2023-07-02T11:42:34;13.40;;;4.80;;
61477;SDS011;47345;52.334;10.392;2023-07-02T11:45:07;11.00;;;4.10;;
61477;SDS011;47345;52.334;10.392;2023-07-02T11:47:39;13.00;;;4.80;;
61477;SDS011;47345;52.334;10.392;2023-07-02T11:50:10;10.10;;;4.70;;
61477;SDS011;47345;52.334;10.392;2023-07-02T11:52:53;12.10;;;4.90;;
61477;SDS011;47345;52.334;10.392;2023-07-02T11:55:24;15.60;;;4.90;;
61477;SDS011;47345;52.334;10.392;2023-07-02T11:57:55;7.40;;;4.30;;
61477;SDS011;47345;52.334;10.392;2023-07-02T12:00:26;7.60;;;4.20;;
61477;SDS011;47345;52.334;10.392;2023-07-02T12:02:57;9.30;;;4.30;;
61477;SDS011;47345;52.334;10.392;2023-07-02T12:05:29;12.00;;;4.90;;
61477;SDS011;47345;52.334;10.392;2023-07-02T12:08:01;10.10;;;4.40;;
61477;SDS011;47345;52.334;10.392;2023-07-02T12:10:33;10.10;;;4.80;;
61477;SDS011;47345;52.334;10.392;2023-07-02T12:13:06;14.00;;;4.60;;
61477;SDS011;47345;52.334;10.392;2023-07-02T12:15:37;17.00;;;4.30;;
61477;SDS011;47345;52.334;10.392;2023-07-02T12:18:08;11.50;;;4.80;;
61477;SDS011;47345;52.334;10.392;2023-07-02T12:20:40;16.00;;;4.90;;
61477;SDS011;47345;52.334;10.392;2023-07-02T12:23:10;12.40;;;5.10;;
61477;SDS011;47345;52.334;10.392;2023-07-02T12:25:42;9.90;;;4.90;;
61477;SDS011;47345;52.334;10.392;2023-07-02T12:28:14;9.60;;;4.30;;
61477;SDS011;47345;52.334;10.392;2023-07-02T12:30:44;9.30;;;4.50;;
61477;SDS011;47345;52.334;10.392;2023-07-02T12:33:16;15.20;;;4.60;;
61477;SDS011;47345;52.334;10.392;2023-07-02T12:35:47;10.70;;;4.60;;
61477;SDS011;47345;52.334;10.392;2023-07-02T12:38:19;10.40;;;4.50;;
61477;SDS011;47345;52.334;10.392;2023-07-02T12:40:50;7.50;;;4.10;;
61477;SDS011;47345;52.334;10.392;2023-07-02T12:43:21;13.10;;;4.60;;
61477;SDS011;47345;52.334;10.392;2023-07-02T12:45:52;15.20;;;5.00;;
61477;SDS011;47345;52.334;10.392;2023-07-02T12:48:23;11.30;;;4.70;;
61477;SDS011;47345;52.334;10.392;2023-07-02T12:50:55;10.70;;;4.40;;
61477;SDS011;47345;52.334;10.392;2023-07-02T12:53:27;9.90;;;4.30;;
61477;SDS011;47345;52.334;10.392;2023-07-02T12:55:58;12.50;;;4.50;;
61477;SDS011;47345;52.334;10.392;2023-07-02T12:58:29;13.90;;;4.80;;
61477;SDS011;47345;52.334;10.392;2023-07-02T13:01:01;12.30;;;4.60;;
61477;SDS011;47345;52.334;10.392;2023-07-02T13:03:32;12.20;;;4.20;;
61477;SDS011;47345;52.334;10.392;2023-07-02T13:06:03;8.80;;;4.10;;
61477;SDS011;47345;52.334;10.392;2023-07-02T13:08:34;10.50;;;4.40;;
61477;SDS011;47345;52.334;10.392;2023-07-02T13:11:06;14.40;;;4.60;;
61477;SDS011;47345;52.334;10.392;2023-07-02T13:13:38;9.60;;;4.30;;
61477;SDS011;47345;52.334;10.392;2023-07-02T13:16:08;9.40;;;3.70;;
61477;SDS011;47345;52.334;10.392;2023-07-02T13:18:39;9.10;;;4.40;;
61477;SDS011;47345;52.334;10.392;2023-07-02T13:21:11;9.40;;;4.40;;
61477;SDS011;47345;52.334;10.392;2023-07-02T13:23:41;8.60;;;4.60;;
61477;SDS011;47345;52.334;10.392;2023-07-02T13:26:13;9.30;;;4.20;;
61477;SDS011;47345;52.334;10.392;2023-07-02T13:28:44;12.60;;;4.80;;
61477;SDS011;47345;52.334;10.392;2023-07-02T13:31:16;7.90;;;4.00;;
61477;SDS011;47345;52.334;10.392;2023-07-02T13:33:47;11.40;;;4.40;;
61477;SDS011;47345;52.334;10.392;2023-07-02T13:36:18;9.70;;;4.60;;
61477;SDS011;47345;52.334;10.392;2023-07-02T13:38:49;9.60;;;4.20;;
61477;SDS011;47345;52.334;10.392;2023-07-02T13:41:21;12.20;;;4.10;;
61477;SDS011;47345;52.334;10.392;2023-07-02T13:43:52;9.20;;;4.60;;
61477;SDS011;47345;52.334;10.392;2023-07-02T13:46:22;9.30;;;4.30;;
61477;SDS011;47345;52.334;10.392;2023-07-02T13:48:54;12.50;;;4.50;;
61477;SDS011;47345;52.334;10.392;2023-07-02T13:51:25;6.80;;;4.10;;
61477;SDS011;47345;52.334;10.392;2023-07-02T13:53:56;7.00;;;3.80;;
61477;SDS011;47345;52.334;10.392;2023-07-02T13:56:27;9.20;;;3.90;;
61477;SDS011;47345;52.334;10.392;2023-07-02T13:59:02;6.90;;;4.10;;
61477;SDS011;47345;52.334;10.392;2023-07-02T14:01:34;9.10;;;4.20;;
61477;SDS011;47345;52.334;10.392;2023-07-02T14:04:05;12.00;;;4.30;;
61477;SDS011;47345;52.334;10.392;2023-07-02T14:06:36;13.20;;;4.00;;
61477;SDS011;47345;52.334;10.392;2023-07-02T14:09:07;13.40;;;4.80;;
61477;SDS011;47345;52.334;10.392;2023-07-02T14:11:39;10.60;;;4.10;;
61477;SDS011;47345;52.334;10.392;2023-07-02T14:14:11;11.80;;;4.40;;
61477;SDS011;47345;52.334;10.392;2023-07-02T14:16:42;8.50;;;4.10;;
61477;SDS011;47345;52.334;10.392;2023-07-02T14:19:13;10.20;;;4.50;;
61477;SDS011;47345;52.334;10.392;2023-07-02T14:21:45;10.50;;;4.40;;
61477;SDS011;47345;52.334;10.392;2023-07-02T14:24:17;13.20;;;4.80;;
61477;SDS011;47345;52.334;10.392;2023-07-02T14:26:48;12.50;;;4.10;;
61477;SDS011;47345;52.334;10.392;2023-07-02T14:29:19;13.70;;;4.60;;
61477;SDS011;47345;52.334;10.392;2023-07-02T14:31:55;8.00;;;4.30;;
61477;SDS011;47345;52.334;10.392;2023-07-02T14:34:26;6.90;;;4.20;;
61477;SDS011;47345;52.334;10.392;2023-07-02T14:36:57;10.90;;;4.20;;
61477;SDS011;47345;52.334;10.392;2023-07-02T14:39:28;9.10;;;3.30;;
61477;SDS011;47345;52.334;10.392;2023-07-02T14:41:59;5.70;;;3.40;;
61477;SDS011;47345;52.334;10.392;2023-07-02T14:44:30;11.70;;;4.10;;
61477;SDS011;47345;52.334;10.392;2023-07-02T14:47:04;10.90;;;4.10;;
61477;SDS011;47345;52.334;10.392;2023-07-02T14:49:35;6.60;;;3.50;;
61477;SDS011;47345;52.334;10.392;2023-07-02T14:52:07;7.80;;;3.90;;
61477;SDS011;47345;52.334;10.392;2023-07-02T14:54:39;10.50;;;3.90;;